Time;durP1;ratioP1;P1;durP2;ratioP2;P2;SDS_P1;SDS_P2;PMS_P1;PMS_P2;Temp;Humidity;BMP_temperature;BMP_pressure;BME280_temperature;BME280_humidity;BME280_pressure;Samples;Min_cycle;Max_cycle;Signal;HPM_P1;HPM_P2
2023/07/17 00:01:15;;;;;;;3.45;2.58;;;18.80;99.90;;;;;;4998479;28;20487;-80
2023/07/17 00:03:41;;;;;;;3.53;2.90;;;18.70;99.90;;;;;;5014467;28;20388;-81
2023/07/17 00:06:07;;;;;;;3.70;2.80;;;18.70;99.90;;;;;;5013925;28;20831;-80
2023/07/17 00:08:32;;;;;;;3.15;2.60;;;18.70;99.90;;;;;;5023338;28;20748;-80
2023/07/17 00:10:58;;;;;;;5.53;2.83;;;18.80;99.90;;;;;;5030070;28;20412;-80
2023/07/17 00:13:24;;;;;;;4.60;2.78;;;18.90;99.90;;;;;;5029417;28;20448;-79
2023/07/17 00:15:50;;;;;;;7.65;2.92;;;18.80;99.90;;;;;;5028313;28;20409;-81
2023/07/17 00:18:16;;;;;;;3.17;2.50;;;18.70;99.90;;;;;;5021051;28;20435;-81
2023/07/17 00:20:41;;;;;;;2.97;2.65;;;18.60;99.90;;;;;;5009467;28;20437;-80
2023/07/17 00:23:07;;;;;;;4.18;2.92;;;18.60;99.90;;;;;;5005912;28;20409;-80
2023/07/17 00:25:32;;;;;;;4.70;3.10;;;18.70;99.90;;;;;;5007722;28;20454;-80
2023/07/17 00:27:58;;;;;;;3.55;3.20;;;18.80;99.90;;;;;;5008950;28;20417;-79
2023/07/17 00:30:24;;;;;;;3.00;2.70;;;18.70;99.90;;;;;;5011445;28;20412;-80
2023/07/17 00:32:49;;;;;;;4.70;2.67;;;18.70;99.90;;;;;;5029731;28;20429;-80
2023/07/17 00:35:15;;;;;;;4.85;2.70;;;18.70;99.90;;;;;;5029218;28;20420;-80
2023/07/17 00:37:41;;;;;;;3.00;2.70;;;18.70;99.90;;;;;;5047133;23;20452;-81
2023/07/17 00:40:08;;;;;;;4.22;3.08;;;18.60;99.90;;;;;;4982945;28;20390;-81
2023/07/17 00:42:34;;;;;;;3.08;2.70;;;18.80;99.90;;;;;;4979195;28;20921;-81
2023/07/17 00:45:00;;;;;;;3.75;2.70;;;18.70;99.90;;;;;;4961107;28;20396;-80
2023/07/17 00:47:26;;;;;;;4.15;3.13;;;18.70;99.90;;;;;;4955236;28;20513;-81
2023/07/17 00:49:51;;;;;;;2.97;2.60;;;18.60;99.90;;;;;;4938994;29;20803;-81
2023/07/17 00:52:17;;;;;;;4.20;2.70;;;18.60;99.90;;;;;;4944203;29;20509;-81
2023/07/17 00:54:43;;;;;;;3.70;2.60;;;18.60;99.90;;;;;;4957092;29;20416;-81
2023/07/17 00:57:11;;;;;;;4.57;2.93;;;18.70;99.90;;;;;;4956996;28;20410;-81
2023/07/17 00:59:38;;;;;;;2.78;2.38;;;18.70;99.90;;;;;;4956834;29;20449;-81
2023/07/17 01:02:04;;;;;;;4.15;2.80;;;18.60;99.90;;;;;;4952260;29;20404;-81
2023/07/17 01:04:30;;;;;;;5.20;2.75;;;18.60;99.90;;;;;;4937105;29;20399;-80
2023/07/17 01:06:55;;;;;;;4.50;2.63;;;18.60;99.90;;;;;;4937946;29;20402;-80
2023/07/17 01:09:21;;;;;;;3.15;2.33;;;18.70;99.90;;;;;;4938969;29;20411;-81
2023/07/17 01:11:47;;;;;;;4.65;3.20;;;18.60;99.90;;;;;;4937429;29;20392;-81
2023/07/17 01:14:17;;;;;;;3.72;3.10;;;18.50;99.90;;;;;;4956220;29;20403;-80
2023/07/17 01:16:48;;;;;;;4.75;2.85;;;18.60;99.90;;;;;;4938893;29;20949;-80
2023/07/17 01:19:14;;;;;;;4.70;2.65;;;18.50;99.90;;;;;;4950781;29;20403;-81
2023/07/17 01:21:48;;;;;;;5.22;2.88;;;18.60;99.90;;;;;;4920099;29;20507;-81
2023/07/17 01:24:14;;;;;;;3.00;2.60;;;18.50;99.90;;;;;;4937320;29;20447;-81
2023/07/17 01:26:39;;;;;;;4.57;3.00;;;18.60;99.90;;;;;;4919677;29;20407;-80
2023/07/17 01:29:05;;;;;;;5.53;2.80;;;18.50;99.90;;;;;;4937140;29;20516;-80
2023/07/17 01:31:30;;;;;;;4.00;2.90;;;18.50;99.90;;;;;;4936705;29;20419;-80
2023/07/17 01:33:56;;;;;;;4.57;2.63;;;18.50;99.90;;;;;;4945484;29;20766;-81
2023/07/17 01:36:22;;;;;;;4.20;2.70;;;18.50;99.90;;;;;;4955632;28;20766;-81
2023/07/17 01:38:48;;;;;;;4.88;3.55;;;18.60;99.90;;;;;;4955376;29;20508;-81
2023/07/17 01:41:13;;;;;;;4.40;3.25;;;18.50;99.90;;;;;;4955475;29;20425;-80
2023/07/17 01:43:39;;;;;;;5.40;2.70;;;18.60;99.90;;;;;;4938502;29;20421;-80
2023/07/17 01:46:04;;;;;;;3.45;2.92;;;18.60;99.90;;;;;;4955960;29;20405;-81
2023/07/17 01:48:30;;;;;;;4.00;2.70;;;18.60;99.90;;;;;;4955001;29;20429;-81
2023/07/17 01:50:56;;;;;;;6.57;3.13;;;18.60;99.90;;;;;;4955527;29;20928;-81
2023/07/17 01:53:21;;;;;;;6.32;3.20;;;18.50;99.90;;;;;;4955871;29;20464;-80
2023/07/17 01:55:47;;;;;;;3.80;2.80;;;18.50;99.90;;;;;;4938593;29;20406;-80
2023/07/17 01:58:13;;;;;;;4.03;3.10;;;18.60;99.90;;;;;;4956278;28;20401;-80
2023/07/17 02:00:38;;;;;;;3.80;3.03;;;18.50;99.90;;;;;;4941469;29;20401;-80
2023/07/17 02:03:04;;;;;;;3.92;3.22;;;18.40;99.90;;;;;;4942952;29;20917;-80
2023/07/17 02:05:30;;;;;;;4.13;2.70;;;18.40;99.90;;;;;;4960875;29;20410;-80
2023/07/17 02:07:56;;;;;;;6.13;3.30;;;18.40;99.90;;;;;;4960273;29;20867;-80
2023/07/17 02:10:22;;;;;;;4.55;3.00;;;18.30;99.90;;;;;;4941265;29;20413;-80
2023/07/17 02:12:48;;;;;;;4.78;2.78;;;18.30;99.90;;;;;;4941910;29;20417;-80
2023/07/17 02:15:13;;;;;;;5.63;3.03;;;18.30;99.90;;;;;;4958211;29;20445;-81
2023/07/17 02:17:39;;;;;;;3.33;2.80;;;18.20;99.90;;;;;;4958389;29;20972;-81
2023/07/17 02:20:10;;;;;;;4.78;3.00;;;18.20;99.90;;;;;;4958318;29;20773;-80
2023/07/17 02:22:36;;;;;;;4.00;2.67;;;18.30;99.90;;;;;;4958871;29;20474;-80
2023/07/17 02:25:01;;;;;;;3.00;2.70;;;18.30;99.90;;;;;;4958420;29;20398;-81
2023/07/17 02:27:27;;;;;;;4.50;2.90;;;18.20;99.90;;;;;;4941350;29;20406;-80
2023/07/17 02:29:54;;;;;;;4.53;3.25;;;18.20;99.90;;;;;;4958451;29;20425;-80
2023/07/17 02:32:19;;;;;;;4.43;2.55;;;18.20;99.90;;;;;;4958065;29;20505;-81
2023/07/17 02:34:45;;;;;;;5.10;3.00;;;18.20;99.90;;;;;;4941028;29;20468;-80
2023/07/17 02:37:11;;;;;;;3.22;2.60;;;18.10;99.90;;;;;;4958343;28;20437;-80
2023/07/17 02:39:36;;;;;;;6.35;3.00;;;18.10;99.90;;;;;;4941212;29;20390;-80
2023/07/17 02:42:02;;;;;;;4.33;3.00;;;18.10;99.90;;;;;;4958366;29;20873;-80
2023/07/17 02:44:27;;;;;;;3.40;3.00;;;18.10;99.90;;;;;;4941099;29;20394;-80
2023/07/17 02:46:53;;;;;;;4.90;3.07;;;18.20;99.90;;;;;;4940755;29;20426;-80
2023/07/17 02:49:18;;;;;;;3.20;2.90;;;18.30;99.90;;;;;;4940713;29;20445;-80
2023/07/17 02:51:44;;;;;;;10.57;3.43;;;18.20;99.90;;;;;;4958189;29;20386;-80
2023/07/17 02:54:09;;;;;;;3.00;2.53;;;18.10;99.90;;;;;;4957937;29;20464;-80
2023/07/17 02:56:35;;;;;;;5.20;3.03;;;18.10;99.90;;;;;;4958691;29;20738;-80
2023/07/17 02:59:00;;;;;;;4.40;3.08;;;18.10;99.90;;;;;;4958298;29;20391;-80
2023/07/17 03:01:26;;;;;;;3.47;3.10;;;18.10;99.90;;;;;;4957726;29;20387;-79
2023/07/17 03:03:51;;;;;;;4.78;2.92;;;18.10;99.90;;;;;;4958363;29;20409;-81
2023/07/17 03:06:17;;;;;;;4.70;2.90;;;18.10;99.90;;;;;;4940892;29;20412;-80
2023/07/17 03:08:42;;;;;;;3.90;2.90;;;18.10;99.90;;;;;;4957968;29;20402;-80
2023/07/17 03:11:08;;;;;;;5.10;3.17;;;18.10;99.90;;;;;;4940086;29;20406;-81
2023/07/17 03:13:34;;;;;;;5.20;3.23;;;18.10;99.90;;;;;;4958208;29;20449;-81
2023/07/17 03:15:59;;;;;;;4.38;2.95;;;18.10;99.90;;;;;;4940551;29;20386;-80
2023/07/17 03:18:26;;;;;;;3.43;3.00;;;18.10;99.90;;;;;;4940636;29;20402;-80
2023/07/17 03:20:52;;;;;;;3.95;2.63;;;18.20;99.90;;;;;;4969785;29;20398;-79
2023/07/17 03:23:17;;;;;;;3.78;2.92;;;18.20;99.90;;;;;;4946876;29;20453;-80
2023/07/17 03:25:43;;;;;;;5.40;2.83;;;18.20;99.90;;;;;;4957747;29;20406;-80
2023/07/17 03:28:09;;;;;;;4.30;3.00;;;18.10;99.90;;;;;;4957808;29;20406;-81
2023/07/17 03:30:35;;;;;;;4.45;3.22;;;18.10;99.90;;;;;;4940026;29;20504;-80
2023/07/17 03:33:00;;;;;;;4.40;2.90;;;18.20;99.90;;;;;;4940884;29;20410;-81
2023/07/17 03:35:26;;;;;;;4.03;2.95;;;18.30;99.90;;;;;;4958036;29;20409;-80
2023/07/17 03:37:51;;;;;;;6.83;3.30;;;18.30;99.90;;;;;;4957551;28;20822;-80
2023/07/17 03:40:17;;;;;;;4.77;3.30;;;18.20;99.90;;;;;;4957750;29;20429;-80
2023/07/17 03:42:42;;;;;;;5.17;3.00;;;18.20;99.90;;;;;;4957584;29;20400;-81
2023/07/17 03:45:08;;;;;;;3.83;3.07;;;18.20;99.90;;;;;;4957339;29;20397;-80
2023/07/17 03:47:33;;;;;;;4.78;3.40;;;18.20;99.90;;;;;;4957698;29;20428;-80
2023/07/17 03:49:59;;;;;;;5.40;2.80;;;18.30;99.90;;;;;;4958664;29;20453;-80
2023/07/17 03:52:24;;;;;;;3.40;3.10;;;18.20;99.90;;;;;;4940668;29;20397;-81
2023/07/17 03:54:50;;;;;;;3.00;2.80;;;18.20;99.90;;;;;;4957701;29;20398;-80
2023/07/17 03:57:16;;;;;;;4.90;3.20;;;18.20;99.90;;;;;;4965384;29;20894;-80
2023/07/17 03:59:53;;;;;;;4.47;3.40;;;18.20;99.90;;;;;;4959819;29;20397;-80
2023/07/17 04:02:19;;;;;;;4.95;3.25;;;18.20;99.90;;;;;;4959721;29;20386;-80
2023/07/17 04:04:45;;;;;;;6.00;3.10;;;18.20;99.90;;;;;;4941665;29;20402;-80
2023/07/17 04:07:11;;;;;;;4.82;3.30;;;18.10;99.90;;;;;;4958961;29;20393;-80
2023/07/17 04:09:37;;;;;;;5.07;3.10;;;18.10;99.90;;;;;;4940318;29;20406;-80
2023/07/17 04:12:04;;;;;;;5.03;3.88;;;18.20;99.90;;;;;;4957162;29;20486;-80
2023/07/17 04:14:30;;;;;;;3.97;3.30;;;18.30;99.90;;;;;;4957692;29;20389;-80
2023/07/17 04:16:56;;;;;;;5.95;3.38;;;18.20;99.90;;;;;;4960264;29;20393;-78
2023/07/17 04:19:21;;;;;;;4.75;3.10;;;18.10;99.90;;;;;;4963069;29;20405;-80
2023/07/17 04:21:47;;;;;;;5.27;3.70;;;18.20;99.90;;;;;;4962266;28;20408;-79
2023/07/17 04:24:13;;;;;;;5.60;3.10;;;18.20;99.90;;;;;;4963176;29;20437;-78
2023/07/17 04:26:38;;;;;;;4.57;3.60;;;18.20;99.90;;;;;;4945661;29;20488;-80
2023/07/17 04:29:04;;;;;;;4.93;3.30;;;18.10;99.90;;;;;;4958551;29;20769;-80
2023/07/17 04:31:29;;;;;;;4.83;3.40;;;18.10;99.90;;;;;;4941890;29;20398;-80
2023/07/17 04:33:55;;;;;;;4.72;3.40;;;18.00;99.90;;;;;;4961420;29;20405;-79
2023/07/17 04:36:20;;;;;;;5.20;3.00;;;18.00;99.90;;;;;;4963218;28;20410;-80
2023/07/17 04:38:46;;;;;;;4.35;3.13;;;18.10;99.90;;;;;;4957913;29;20400;-80
2023/07/17 04:41:11;;;;;;;5.40;3.27;;;18.00;99.90;;;;;;4956989;29;20916;-80
2023/07/17 04:43:37;;;;;;;4.77;3.40;;;18.00;99.90;;;;;;4957783;29;20402;-80
2023/07/17 04:46:03;;;;;;;6.65;3.50;;;18.10;99.90;;;;;;4962432;29;20424;-79
2023/07/17 04:48:28;;;;;;;4.70;3.40;;;18.10;99.90;;;;;;4961414;29;20401;-78
2023/07/17 04:50:54;;;;;;;5.67;3.60;;;18.00;99.90;;;;;;4959611;29;20405;-79
2023/07/17 04:53:19;;;;;;;5.43;3.63;;;18.10;99.90;;;;;;4942062;29;20398;-79
2023/07/17 04:55:45;;;;;;;4.33;3.50;;;18.00;99.90;;;;;;4940877;29;20415;-79
2023/07/17 04:58:10;;;;;;;5.85;3.35;;;18.00;99.90;;;;;;4957392;29;20443;-80
2023/07/17 05:00:36;;;;;;;7.03;3.10;;;18.20;99.90;;;;;;4956787;29;20397;-80
2023/07/17 05:03:01;;;;;;;4.60;3.20;;;18.30;99.90;;;;;;4957510;29;20394;-80
2023/07/17 05:05:28;;;;;;;5.55;3.80;;;18.30;99.90;;;;;;4959659;29;20485;-80
2023/07/17 05:07:54;;;;;;;5.45;3.40;;;18.40;99.90;;;;;;4961262;29;20856;-79
2023/07/17 05:10:19;;;;;;;6.50;3.70;;;18.40;99.90;;;;;;4957911;29;20444;-80
2023/07/17 05:12:45;;;;;;;5.68;3.22;;;18.50;99.90;;;;;;4959862;29;20767;-79
2023/07/17 05:15:11;;;;;;;4.50;3.20;;;18.50;99.90;;;;;;4943165;29;20453;-79
2023/07/17 05:17:36;;;;;;;3.80;3.20;;;18.60;99.90;;;;;;4958798;29;20973;-79
2023/07/17 05:20:05;;;;;;;5.93;3.30;;;18.50;99.90;;;;;;4944249;29;20454;-80
2023/07/17 05:22:31;;;;;;;6.13;3.65;;;18.50;99.90;;;;;;4959586;29;20490;-79
2023/07/17 05:24:57;;;;;;;4.15;3.20;;;18.60;99.90;;;;;;4959908;29;20398;-80
2023/07/17 05:27:23;;;;;;;4.80;3.60;;;18.60;99.90;;;;;;4958853;29;20412;-79
2023/07/17 05:29:48;;;;;;;5.35;3.42;;;18.70;99.90;;;;;;4959289;29;20809;-80
2023/07/17 05:32:14;;;;;;;7.00;3.30;;;18.80;99.90;;;;;;4960576;28;21154;-80
2023/07/17 05:34:39;;;;;;;5.20;2.97;;;18.80;99.90;;;;;;4944084;29;20468;-80
2023/07/17 05:37:05;;;;;;;3.95;2.80;;;19.00;99.90;;;;;;4960590;29;20417;-79
2023/07/17 05:39:31;;;;;;;4.80;3.10;;;18.90;99.90;;;;;;4942841;29;20405;-80
2023/07/17 05:41:56;;;;;;;4.22;3.00;;;19.00;99.90;;;;;;4958909;29;20410;-80
2023/07/17 05:44:22;;;;;;;5.22;3.15;;;19.00;99.90;;;;;;4942755;29;20409;-79
2023/07/17 05:46:47;;;;;;;4.60;3.30;;;19.00;99.90;;;;;;4959199;29;20451;-79
2023/07/17 05:49:13;;;;;;;3.63;3.20;;;19.10;99.90;;;;;;4959270;29;20454;-80
2023/07/17 05:51:39;;;;;;;4.50;3.28;;;19.00;99.90;;;;;;4959187;29;20456;-79
2023/07/17 05:54:05;;;;;;;4.53;3.50;;;19.10;99.90;;;;;;4958962;29;20477;-79
2023/07/17 05:56:31;;;;;;;6.45;3.67;;;19.10;99.90;;;;;;4958447;29;20390;-79
2023/07/17 05:58:56;;;;;;;5.70;3.27;;;19.00;99.90;;;;;;4958371;29;20440;-80
2023/07/17 06:01:22;;;;;;;4.72;3.50;;;19.00;99.90;;;;;;4957550;29;20402;-80
2023/07/17 06:03:47;;;;;;;4.93;3.37;;;19.10;99.90;;;;;;4958738;29;20410;-80
2023/07/17 06:06:13;;;;;;;7.97;3.60;;;19.10;99.90;;;;;;4941122;29;20386;-80
2023/07/17 06:08:38;;;;;;;6.13;3.15;;;19.10;99.90;;;;;;4958029;29;20422;-80
2023/07/17 06:11:04;;;;;;;4.77;3.50;;;19.20;99.90;;;;;;4958133;29;20469;-80
2023/07/17 06:13:29;;;;;;;4.30;3.20;;;19.30;99.90;;;;;;4958948;29;20404;-80
2023/07/17 06:15:55;;;;;;;6.17;3.20;;;19.30;99.90;;;;;;4958754;29;20390;-80
2023/07/17 06:18:20;;;;;;;4.18;3.35;;;19.40;99.90;;;;;;4962619;29;20421;-79
2023/07/17 06:20:46;;;;;;;4.90;3.10;;;19.50;99.90;;;;;;4962781;29;20394;-79
2023/07/17 06:23:11;;;;;;;4.25;3.33;;;19.60;99.90;;;;;;4963789;29;20406;-79
2023/07/17 06:25:38;;;;;;;6.03;3.30;;;19.60;99.90;;;;;;4946769;29;20416;-79
2023/07/17 06:28:04;;;;;;;5.03;3.40;;;19.70;99.90;;;;;;4960172;29;20397;-79
2023/07/17 06:30:31;;;;;;;3.90;2.92;;;19.80;99.90;;;;;;4958088;29;20412;-79
2023/07/17 06:32:57;;;;;;;8.80;3.40;;;19.90;99.90;;;;;;4943693;29;20410;-79
2023/07/17 06:35:22;;;;;;;3.97;3.20;;;20.00;99.90;;;;;;4964276;29;20495;-80
2023/07/17 06:37:48;;;;;;;4.93;3.30;;;20.00;99.90;;;;;;5023579;23;20523;-83
2023/07/17 06:40:14;;;;;;;5.10;2.70;;;20.20;99.90;;;;;;5019866;28;20381;-83
2023/07/17 06:42:39;;;;;;;4.72;3.38;;;20.20;99.90;;;;;;5024514;28;20389;-83
2023/07/17 06:45:06;;;;;;;4.67;2.60;;;20.30;99.90;;;;;;5027558;28;20399;-83
2023/07/17 06:47:32;;;;;;;4.20;3.00;;;20.30;99.90;;;;;;5023592;28;20402;-83
2023/07/17 06:49:58;;;;;;;4.10;3.00;;;20.40;99.90;;;;;;5004111;28;20493;-84
2023/07/17 06:52:24;;;;;;;3.30;2.90;;;20.50;99.90;;;;;;4998512;28;20402;-82
2023/07/17 06:54:49;;;;;;;3.53;3.00;;;20.50;99.90;;;;;;4998798;28;20410;-84
2023/07/17 06:57:15;;;;;;;4.60;3.00;;;20.60;99.90;;;;;;5002198;28;20396;-83
2023/07/17 06:59:40;;;;;;;5.10;3.20;;;20.70;99.90;;;;;;5019321;28;20388;-84
2023/07/17 07:02:06;;;;;;;4.83;3.17;;;20.70;99.90;;;;;;5001377;28;20402;-85
2023/07/17 07:04:31;;;;;;;4.53;3.10;;;20.90;99.90;;;;;;4998355;28;20398;-83
2023/07/17 07:06:57;;;;;;;5.90;3.90;;;21.00;99.90;;;;;;4997885;28;20405;-83
2023/07/17 07:09:22;;;;;;;5.45;3.55;;;21.10;99.90;;;;;;4998105;28;20406;-83
2023/07/17 07:11:48;;;;;;;5.13;3.60;;;21.40;99.90;;;;;;5010723;28;20397;-84
2023/07/17 07:14:13;;;;;;;9.15;4.15;;;21.60;99.90;;;;;;5016713;28;20403;-83
2023/07/17 07:16:39;;;;;;;5.37;4.00;;;21.80;99.90;;;;;;5018227;28;20613;-83
2023/07/17 07:19:04;;;;;;;4.05;3.60;;;21.80;99.90;;;;;;5002072;28;20770;-83
2023/07/17 07:21:30;;;;;;;4.50;3.70;;;21.90;99.90;;;;;;4999700;28;20395;-83
2023/07/17 07:23:56;;;;;;;6.00;3.63;;;21.90;99.90;;;;;;5000492;28;20383;-84
2023/07/17 07:26:21;;;;;;;6.03;3.57;;;22.40;99.90;;;;;;5000142;28;20389;-83
2023/07/17 07:28:47;;;;;;;6.00;4.20;;;22.50;99.90;;;;;;5014115;28;20400;-83
2023/07/17 07:31:12;;;;;;;5.13;3.50;;;22.50;99.90;;;;;;5004382;28;20411;-83
2023/07/17 07:33:38;;;;;;;5.72;3.75;;;22.50;99.90;;;;;;4996845;28;20398;-84
2023/07/17 07:36:04;;;;;;;5.03;3.67;;;22.40;99.90;;;;;;4998542;28;20763;-83
2023/07/17 07:38:29;;;;;;;6.43;4.07;;;22.50;99.90;;;;;;4997108;28;20399;-83
2023/07/17 07:40:55;;;;;;;5.75;3.67;;;22.50;99.90;;;;;;5005818;28;20397;-82
2023/07/17 07:43:20;;;;;;;5.40;4.60;;;22.40;99.90;;;;;;5017238;28;20749;-83
2023/07/17 07:45:46;;;;;;;5.55;4.40;;;22.30;99.90;;;;;;5017005;28;20407;-84
2023/07/17 07:48:11;;;;;;;4.90;4.10;;;22.50;99.90;;;;;;5016190;28;20389;-83
2023/07/17 07:50:37;;;;;;;5.70;4.53;;;22.60;99.90;;;;;;4999270;28;20417;-83
2023/07/17 07:53:03;;;;;;;5.38;4.00;;;22.60;99.90;;;;;;4997777;28;20386;-83
2023/07/17 07:55:29;;;;;;;4.47;4.07;;;22.60;99.90;;;;;;4997054;28;20754;-83
2023/07/17 07:57:54;;;;;;;5.25;4.10;;;22.50;99.90;;;;;;5000585;28;20397;-82
2023/07/17 08:00:20;;;;;;;8.97;4.27;;;22.60;99.90;;;;;;5012053;28;20401;-84
2023/07/17 08:02:45;;;;;;;6.22;4.13;;;22.70;99.90;;;;;;5019893;28;20380;-83
2023/07/17 08:05:11;;;;;;;5.80;4.40;;;22.70;99.90;;;;;;5001933;28;20430;-84
2023/07/17 08:07:37;;;;;;;6.28;4.75;;;22.80;99.90;;;;;;4998818;28;20799;-84
2023/07/17 08:10:03;;;;;;;6.10;4.30;;;22.70;99.90;;;;;;4998741;28;20906;-84
2023/07/17 08:12:30;;;;;;;5.47;4.35;;;22.80;99.90;;;;;;4997661;28;20379;-83
2023/07/17 08:14:55;;;;;;;5.53;4.30;;;22.70;99.90;;;;;;4997475;28;20386;-83
2023/07/17 08:17:21;;;;;;;7.40;4.60;;;22.80;99.90;;;;;;5012196;28;20481;-83
2023/07/17 08:19:46;;;;;;;5.60;4.15;;;22.90;99.90;;;;;;5016351;28;20427;-83
2023/07/17 08:22:12;;;;;;;6.87;4.53;;;23.00;99.90;;;;;;5018180;28;20456;-83
2023/07/17 08:24:37;;;;;;;5.15;4.13;;;23.00;99.90;;;;;;5019641;28;20948;-83
2023/07/17 08:27:03;;;;;;;7.10;4.43;;;22.90;99.90;;;;;;5007898;28;20438;-84
2023/07/17 08:29:29;;;;;;;5.32;4.32;;;22.90;99.90;;;;;;5000922;28;20427;-82
2023/07/17 08:31:54;;;;;;;5.13;4.63;;;22.90;99.90;;;;;;5015548;28;20400;-84
2023/07/17 08:34:23;;;;;;;6.33;4.90;;;23.10;99.90;;;;;;5002751;28;20409;-83
2023/07/17 08:36:48;;;;;;;6.20;4.47;;;23.10;99.90;;;;;;4996134;28;20449;-83
2023/07/17 08:39:14;;;;;;;6.50;4.50;;;23.10;99.90;;;;;;5010057;28;20394;-82
2023/07/17 08:41:41;;;;;;;5.13;4.53;;;23.20;99.90;;;;;;5036405;28;20404;-82
2023/07/17 08:44:07;;;;;;;7.78;4.50;;;23.10;99.90;;;;;;5028826;28;20400;-83
2023/07/17 08:46:33;;;;;;;5.40;4.70;;;23.20;99.90;;;;;;5021869;28;20397;-84
2023/07/17 08:49:01;;;;;;;9.90;5.00;;;23.20;99.90;;;;;;5026022;28;20427;-84
2023/07/17 08:51:27;;;;;;;7.68;4.57;;;23.30;99.90;;;;;;5025246;28;20412;-83
2023/07/17 08:53:54;;;;;;;6.30;4.20;;;23.30;99.90;;;;;;5009481;28;20410;-83
2023/07/17 08:56:20;;;;;;;6.32;5.05;;;23.30;99.90;;;;;;5001379;28;20434;-84
2023/07/17 08:58:46;;;;;;;5.40;4.47;;;23.20;99.90;;;;;;5017545;28;20392;-82
2023/07/17 09:01:12;;;;;;;6.57;4.70;;;23.30;99.90;;;;;;5016125;28;20471;-83
2023/07/17 09:03:38;;;;;;;5.10;4.60;;;23.30;99.90;;;;;;5017909;28;20392;-83
2023/07/17 09:06:05;;;;;;;6.40;4.80;;;23.30;99.90;;;;;;5016726;28;20452;-84
2023/07/17 09:08:31;;;;;;;6.60;5.00;;;23.30;99.90;;;;;;4998681;28;20409;-82
2023/07/17 09:11:05;;;;;;;7.20;4.70;;;23.30;99.90;;;;;;4998472;28;20414;-83
2023/07/17 09:13:41;;;;;;;6.55;4.57;;;23.40;99.90;;;;;;4997510;28;20481;-83
2023/07/17 09:16:22;;;;;;;6.40;4.60;;;23.50;99.90;;;;;;5006445;28;20396;-84
2023/07/17 09:18:50;;;;;;;5.85;4.25;;;23.60;99.90;;;;;;5016161;28;20392;-82
2023/07/17 09:21:20;;;;;;;5.47;4.40;;;23.50;99.90;;;;;;5017312;28;20389;-82
2023/07/17 09:23:48;;;;;;;5.57;4.50;;;23.60;99.90;;;;;;5023720;28;20389;-84
2023/07/17 09:26:16;;;;;;;8.60;4.80;;;23.70;99.90;;;;;;5012802;28;20485;-83
2023/07/17 09:28:48;;;;;;;6.35;4.75;;;23.80;99.90;;;;;;5011345;28;20398;-82
2023/07/17 09:31:15;;;;;;;5.85;4.32;;;23.90;99.90;;;;;;5016294;28;20406;-81
2023/07/17 09:33:41;;;;;;;7.00;4.70;;;23.70;99.90;;;;;;5020429;28;20401;-81
2023/07/17 09:36:10;;;;;;;6.13;4.40;;;23.50;99.90;;;;;;5033718;28;20417;-84
2023/07/17 09:38:36;;;;;;;7.45;4.30;;;23.40;99.90;;;;;;5030844;28;20423;-83
2023/07/17 09:41:16;;;;;;;7.50;4.83;;;23.40;99.90;;;;;;5032828;28;20392;-83
2023/07/17 09:43:42;;;;;;;6.57;4.45;;;23.50;99.90;;;;;;5029634;28;20390;-83
2023/07/17 09:46:08;;;;;;;7.93;4.83;;;23.40;99.90;;;;;;5000758;28;20461;-84
2023/07/17 09:48:35;;;;;;;5.45;4.78;;;23.40;99.90;;;;;;4996600;28;20833;-84
2023/07/17 09:51:02;;;;;;;6.00;4.75;;;23.60;99.90;;;;;;4996753;28;20454;-83
2023/07/17 09:53:29;;;;;;;6.60;4.57;;;23.70;99.90;;;;;;5016659;28;20519;-84
2023/07/17 09:55:56;;;;;;;5.32;4.22;;;23.90;99.90;;;;;;5017476;28;20377;-82
2023/07/17 09:58:25;;;;;;;7.55;4.63;;;23.80;99.90;;;;;;5015985;28;20404;-82
2023/07/17 10:00:55;;;;;;;5.63;4.70;;;23.90;99.90;;;;;;5016442;28;20423;-84
2023/07/17 10:03:23;;;;;;;7.40;4.70;;;23.80;99.90;;;;;;4998439;28;20757;-83
2023/07/17 10:05:50;;;;;;;6.07;4.45;;;23.90;99.90;;;;;;4995711;28;20434;-84
2023/07/17 10:08:17;;;;;;;7.72;5.22;;;23.80;99.90;;;;;;5005193;28;20398;-83
2023/07/17 10:10:43;;;;;;;8.50;4.50;;;23.80;99.90;;;;;;5013846;28;21228;-83
2023/07/17 10:13:09;;;;;;;5.03;4.20;;;23.90;99.90;;;;;;5024412;28;20404;-84
2023/07/17 10:15:36;;;;;;;5.95;4.72;;;23.80;99.90;;;;;;5020274;28;20388;-84
2023/07/17 10:18:06;;;;;;;5.65;4.20;;;24.10;99.90;;;;;;5016795;28;20389;-82
2023/07/17 10:20:32;;;;;;;6.03;4.60;;;24.00;99.90;;;;;;5006053;28;20436;-82
2023/07/17 10:22:57;;;;;;;6.57;4.88;;;23.90;99.90;;;;;;5018391;28;20987;-83
2023/07/17 10:25:26;;;;;;;5.60;5.00;;;23.90;99.90;;;;;;5020344;28;20393;-84
2023/07/17 10:28:01;;;;;;;6.97;4.90;;;24.20;99.90;;;;;;5020899;28;20389;-83
2023/07/17 10:30:30;;;;;;;5.03;4.53;;;24.20;99.90;;;;;;5017527;28;20870;-83
2023/07/17 10:33:19;;;;;;;7.45;5.32;;;24.10;99.90;;;;;;5000343;28;20390;-83
2023/07/17 10:35:50;;;;;;;6.82;4.47;;;24.30;99.90;;;;;;4981217;28;20404;-83
2023/07/17 10:38:29;;;;;;;6.93;5.20;;;24.40;99.90;;;;;;4983598;28;20430;-84
2023/07/17 10:41:17;;;;;;;4.90;4.30;;;24.50;99.90;;;;;;5001020;28;20468;-81
2023/07/17 10:43:57;;;;;;;5.28;4.63;;;24.80;99.90;;;;;;4997784;28;20396;-81
2023/07/17 10:46:28;;;;;;;6.10;4.10;;;24.80;99.90;;;;;;5011171;28;20424;-81
2023/07/17 10:48:55;;;;;;;4.82;4.25;;;24.90;99.90;;;;;;5014420;28;20425;-82
2023/07/17 10:51:26;;;;;;;5.40;4.20;;;24.70;99.90;;;;;;5012404;28;20405;-80
2023/07/17 10:53:54;;;;;;;6.45;4.50;;;24.80;99.90;;;;;;5014512;28;20730;-82
2023/07/17 10:56:21;;;;;;;5.93;4.40;;;24.50;99.90;;;;;;5009247;28;20399;-84
2023/07/17 10:58:50;;;;;;;5.70;4.00;;;24.70;99.90;;;;;;5013136;28;20389;-84
2023/07/17 11:01:15;;;;;;;4.55;4.15;;;24.60;99.90;;;;;;5025826;28;20399;-83
2023/07/17 11:03:44;;;;;;;5.45;4.00;;;24.50;99.90;;;;;;5018612;28;20400;-82
2023/07/17 11:06:09;;;;;;;5.10;4.30;;;24.30;99.90;;;;;;5005411;28;20408;-82
2023/07/17 11:08:35;;;;;;;4.82;4.20;;;24.30;99.90;;;;;;4988735;28;20828;-83
2023/07/17 11:11:00;;;;;;;6.00;3.73;;;24.20;99.90;;;;;;4990496;28;20446;-83
2023/07/17 11:13:31;;;;;;;4.50;3.90;;;24.10;99.90;;;;;;4995984;28;20393;-83
2023/07/17 11:16:05;;;;;;;5.45;4.68;;;24.10;99.90;;;;;;4996366;28;20387;-82
2023/07/17 11:18:30;;;;;;;5.20;4.20;;;24.20;99.90;;;;;;4995289;28;20922;-83
2023/07/17 11:20:56;;;;;;;5.33;4.10;;;24.40;99.90;;;;;;4999118;28;20406;-83
2023/07/17 11:23:22;;;;;;;5.60;4.10;;;24.20;99.90;;;;;;4995687;28;20402;-83
2023/07/17 11:25:49;;;;;;;7.13;4.90;;;24.30;99.90;;;;;;4993023;28;20438;-80
2023/07/17 11:28:14;;;;;;;4.90;4.40;;;24.30;99.90;;;;;;4994375;28;20457;-82
2023/07/17 11:30:40;;;;;;;5.25;4.40;;;24.80;99.90;;;;;;4993978;28;20935;-83
2023/07/17 11:33:07;;;;;;;5.40;4.03;;;25.00;99.90;;;;;;4992468;28;20457;-82
2023/07/17 11:35:52;;;;;;;5.68;4.10;;;25.00;99.90;;;;;;4993835;28;20382;-83
2023/07/17 11:38:20;;;;;;;5.57;4.20;;;25.40;99.90;;;;;;4977577;28;20438;-84
2023/07/17 11:40:58;;;;;;;5.72;3.90;;;25.90;99.90;;;;;;4976871;28;20416;-83
2023/07/17 11:43:30;;;;;;;6.30;4.20;;;26.20;99.90;;;;;;4976927;28;20438;-84
2023/07/17 11:46:01;;;;;;;5.30;3.95;;;26.50;99.90;;;;;;4989611;28;20398;-83
2023/07/17 11:48:27;;;;;;;5.50;3.83;;;27.00;99.90;;;;;;5002551;28;20387;-84
2023/07/17 11:50:55;;;;;;;4.03;3.47;;;27.10;99.90;;;;;;5000672;28;20418;-82
2023/07/17 11:53:21;;;;;;;5.53;3.92;;;27.50;99.90;;;;;;4993450;28;20410;-82
2023/07/17 11:55:47;;;;;;;4.75;3.80;;;27.60;99.90;;;;;;4994721;28;20383;-81
2023/07/17 11:58:35;;;;;;;5.00;3.97;;;27.70;99.90;;;;;;5000658;28;20911;-81
2023/07/17 12:01:01;;;;;;;4.65;4.00;;;27.40;99.90;;;;;;5013685;28;20430;-81
2023/07/17 12:03:27;;;;;;;5.45;4.22;;;27.30;99.90;;;;;;4996706;28;20663;-82
2023/07/17 12:05:53;;;;;;;4.22;3.83;;;27.30;99.90;;;;;;5012251;28;20405;-80
2023/07/17 12:08:19;;;;;;;4.93;3.95;;;27.80;99.90;;;;;;5016017;28;20384;-81
2023/07/17 12:10:45;;;;;;;5.50;3.60;;;27.40;99.90;;;;;;5020094;28;20412;-80
2023/07/17 12:13:10;;;;;;;4.32;3.17;;;26.90;99.90;;;;;;5015767;28;20385;-81
2023/07/17 12:15:37;;;;;;;4.35;3.60;;;26.40;99.90;;;;;;5005648;28;20462;-80
2023/07/17 12:18:03;;;;;;;6.17;4.20;;;26.00;99.90;;;;;;4998945;28;20401;-80
2023/07/17 12:20:32;;;;;;;5.45;3.50;;;25.80;99.90;;;;;;4997274;28;20868;-82
2023/07/17 12:22:57;;;;;;;4.00;3.60;;;25.60;99.90;;;;;;5011178;28;20419;-81
2023/07/17 12:25:23;;;;;;;4.45;3.75;;;25.50;99.90;;;;;;5018572;28;20487;-82
2023/07/17 12:27:49;;;;;;;4.30;3.90;;;25.70;99.90;;;;;;5017831;28;20477;-82
2023/07/17 12:30:16;;;;;;;4.50;3.80;;;26.30;99.90;;;;;;5015419;28;20408;-81
2023/07/17 12:32:42;;;;;;;5.03;3.80;;;26.50;99.90;;;;;;5005293;28;20398;-81
2023/07/17 12:35:09;;;;;;;5.00;3.90;;;26.20;99.90;;;;;;5009502;28;20417;-80
2023/07/17 12:37:35;;;;;;;4.72;3.70;;;26.00;99.90;;;;;;5020026;23;20444;-80
2023/07/17 12:40:01;;;;;;;5.22;3.50;;;25.70;99.90;;;;;;4978498;28;20443;-79
2023/07/17 12:42:26;;;;;;;4.20;3.30;;;25.60;99.90;;;;;;4977348;28;20427;-79
2023/07/17 12:44:52;;;;;;;6.77;4.37;;;25.70;99.90;;;;;;4996214;28;20798;-80